Time;durP1;ratioP1;P1;durP2;ratioP2;P2;SDS_P1;SDS_P2;PMS_P1;PMS_P2;Temp;Humidity;BMP_temperature;BMP_pressure;BME280_temperature;BME280_humidity;BME280_pressure;Samples;Min_cycle;Max_cycle;Signal;HPM_P1;HPM_P2
2023/04/03 00:00:50;;;;;;;0.50;0.43;;;1.20;99.90;;;;;;4972737;28;20213;-76
2023/04/03 00:03:17;;;;;;;0.50;0.40;;;1.20;99.90;;;;;;4973511;28;20205;-76
2023/04/03 00:05:44;;;;;;;0.50;0.40;;;1.20;99.90;;;;;;4972548;28;20221;-77
2023/04/03 00:08:12;;;;;;;0.50;0.50;;;1.10;99.90;;;;;;4973405;28;20735;-75
2023/04/03 00:10:39;;;;;;;2.60;2.50;;;1.10;99.90;;;;;;4973313;28;20197;-76
2023/04/03 00:13:07;;;;;;;0.50;0.40;;;1.10;99.90;;;;;;4965377;28;20205;-77
2023/04/03 00:15:34;;;;;;;0.50;0.40;;;1.10;99.90;;;;;;4972972;28;20562;-76
2023/04/03 00:18:01;;;;;;;0.50;0.45;;;1.10;99.90;;;;;;4973012;28;20675;-78
2023/04/03 00:20:28;;;;;;;0.68;0.68;;;1.10;99.90;;;;;;4973432;28;20569;-76
2023/04/03 00:22:55;;;;;;;24.15;15.82;;;1.10;99.90;;;;;;4973096;28;20212;-76
2023/04/03 00:25:23;;;;;;;0.50;0.50;;;1.20;99.90;;;;;;4972774;28;20201;-76
2023/04/03 00:27:51;;;;;;;0.50;0.50;;;1.10;99.90;;;;;;4972745;28;20208;-76
2023/04/03 00:30:20;;;;;;;0.50;0.40;;;1.10;99.90;;;;;;4973031;28;20197;-75
2023/04/03 00:32:48;;;;;;;0.50;0.40;;;1.00;99.90;;;;;;4972952;28;20197;-76
2023/04/03 00:35:16;;;;;;;0.50;0.40;;;1.00;99.90;;;;;;4972474;28;20217;-75
2023/04/03 00:37:43;;;;;;;0.50;0.40;;;1.10;99.90;;;;;;4972627;28;20205;-76
2023/04/03 00:40:11;;;;;;;0.50;0.40;;;1.00;99.90;;;;;;4972977;28;20214;-76
2023/04/03 00:42:40;;;;;;;0.70;0.70;;;0.90;99.90;;;;;;4973085;28;20208;-76
2023/04/03 00:45:31;;;;;;;0.50;0.40;;;1.00;99.90;;;;;;4964543;28;20679;-76
2023/04/03 00:48:00;;;;;;;0.50;0.45;;;1.00;99.90;;;;;;4972553;28;20277;-76
2023/04/03 00:50:28;;;;;;;0.50;0.40;;;0.90;99.90;;;;;;4972705;28;20224;-76
2023/04/03 00:52:56;;;;;;;0.50;0.40;;;0.90;99.90;;;;;;4972434;28;20703;-76
2023/04/03 00:55:23;;;;;;;0.50;0.50;;;0.80;99.90;;;;;;4971852;28;20215;-76
2023/04/03 00:57:53;;;;;;;0.77;0.75;;;0.80;99.90;;;;;;4972629;28;20307;-75
2023/04/03 01:00:22;;;;;;;2.78;2.67;;;0.80;99.90;;;;;;4972692;28;20213;-76
2023/04/03 01:02:49;;;;;;;0.70;0.70;;;0.80;99.90;;;;;;4972243;28;20209;-76
2023/04/03 01:05:17;;;;;;;1.95;1.85;;;0.80;99.90;;;;;;4971789;28;20197;-75
2023/04/03 01:07:45;;;;;;;0.60;0.60;;;0.80;99.90;;;;;;4972271;28;20201;-75
2023/04/03 01:10:15;;;;;;;0.50;0.40;;;0.80;99.90;;;;;;4972480;28;20287;-76
2023/04/03 01:12:44;;;;;;;10.93;10.48;;;0.80;99.90;;;;;;4972328;28;20849;-75
2023/04/03 01:15:15;;;;;;;0.50;0.50;;;0.80;99.90;;;;;;4964510;28;20561;-75
2023/04/03 01:17:43;;;;;;;3.40;1.77;;;0.80;99.90;;;;;;4972487;28;20668;-76
2023/04/03 01:20:39;;;;;;;0.60;0.60;;;0.90;99.90;;;;;;4964536;28;20303;-76
2023/04/03 01:23:26;;;;;;;0.50;0.50;;;1.00;99.90;;;;;;4971980;28;20280;-76
2023/04/03 01:25:55;;;;;;;0.50;0.50;;;1.00;99.90;;;;;;4969422;28;20226;-76
2023/04/03 01:28:24;;;;;;;0.60;0.60;;;1.00;99.90;;;;;;4972212;28;20687;-76
2023/04/03 01:30:59;;;;;;;0.50;0.40;;;1.00;99.90;;;;;;4972096;28;20197;-75
2023/04/03 01:33:27;;;;;;;0.50;0.40;;;1.10;99.90;;;;;;4972287;28;20268;-75
2023/04/03 01:35:54;;;;;;;0.50;0.40;;;1.10;99.90;;;;;;4971381;28;20229;-76
2023/04/03 01:38:21;;;;;;;0.50;0.40;;;1.00;99.90;;;;;;4972299;28;20201;-75
2023/04/03 01:40:48;;;;;;;0.70;0.70;;;1.10;99.90;;;;;;4971901;28;20267;-75
2023/04/03 01:43:15;;;;;;;0.77;0.77;;;1.10;99.90;;;;;;4972266;28;20193;-76
2023/04/03 01:45:41;;;;;;;0.50;0.40;;;1.10;99.90;;;;;;4971825;28;20253;-76
2023/04/03 01:48:08;;;;;;;0.50;0.40;;;1.10;99.90;;;;;;4971814;28;20234;-75
2023/04/03 01:50:36;;;;;;;0.85;0.85;;;1.10;99.90;;;;;;4972250;28;20264;-76
2023/04/03 01:53:03;;;;;;;0.50;0.40;;;1.10;99.90;;;;;;4972055;28;20285;-76
2023/04/03 01:55:30;;;;;;;0.75;0.75;;;1.10;99.90;;;;;;4971877;28;20217;-76
2023/04/03 01:57:56;;;;;;;0.50;0.40;;;1.00;99.90;;;;;;4971750;28;20656;-75
2023/04/03 02:00:23;;;;;;;2.97;2.75;;;1.00;99.90;;;;;;4971999;28;20220;-75
2023/04/03 02:02:50;;;;;;;0.77;0.77;;;1.00;99.90;;;;;;4971654;28;20201;-76
2023/04/03 02:05:17;;;;;;;0.50;0.40;;;0.90;99.90;;;;;;4971478;28;20198;-75
2023/04/03 02:07:45;;;;;;;0.50;0.40;;;0.90;99.90;;;;;;4974446;28;20212;-76
2023/04/03 02:10:13;;;;;;;0.50;0.40;;;0.90;99.90;;;;;;4975658;28;20197;-76
2023/04/03 02:12:40;;;;;;;0.82;0.82;;;0.90;99.90;;;;;;4975958;28;20207;-76
2023/04/03 02:15:07;;;;;;;0.50;0.40;;;0.90;99.90;;;;;;4974882;28;20204;-76
2023/04/03 02:17:35;;;;;;;0.50;0.40;;;0.90;99.90;;;;;;4975613;28;20205;-76
2023/04/03 02:20:02;;;;;;;0.50;0.50;;;0.90;99.90;;;;;;4975239;28;20225;-76
2023/04/03 02:22:29;;;;;;;0.50;0.40;;;0.90;99.90;;;;;;4975454;28;20300;-76
2023/04/03 02:24:57;;;;;;;0.50;0.50;;;0.90;99.90;;;;;;4974713;28;20252;-75
2023/04/03 02:27:24;;;;;;;0.50;0.47;;;0.90;99.90;;;;;;4975161;28;20240;-76
2023/04/03 02:29:51;;;;;;;0.50;0.40;;;0.90;99.90;;;;;;4975258;28;20599;-76
2023/04/03 02:32:18;;;;;;;0.50;0.40;;;0.80;99.90;;;;;;4975289;28;20204;-75
2023/04/03 02:34:45;;;;;;;0.50;0.40;;;0.80;99.90;;;;;;4975029;28;20584;-76
2023/04/03 02:37:12;;;;;;;0.50;0.40;;;0.80;99.90;;;;;;4974778;28;20225;-75
2023/04/03 02:39:38;;;;;;;0.50;0.40;;;0.70;99.90;;;;;;4975141;28;20202;-76
2023/04/03 02:42:07;;;;;;;0.50;0.40;;;0.70;99.90;;;;;;5008646;22;20239;-79
2023/04/03 02:44:33;;;;;;;0.50;0.40;;;0.70;99.90;;;;;;4999966;28;20197;-77
2023/04/03 02:47:00;;;;;;;0.50;0.40;;;0.70;99.90;;;;;;5000829;28;20201;-79
2023/04/03 02:49:27;;;;;;;0.50;0.40;;;0.70;99.90;;;;;;5001547;28;20213;-79
2023/04/03 02:51:54;;;;;;;0.50;0.40;;;0.80;99.90;;;;;;5001436;28;20248;-78
2023/04/03 02:54:21;;;;;;;0.50;0.40;;;0.70;99.90;;;;;;5000700;28;20199;-77
2023/04/03 02:56:48;;;;;;;0.50;0.40;;;0.60;99.90;;;;;;5001966;28;20201;-79
2023/04/03 02:59:17;;;;;;;0.50;0.40;;;0.60;99.90;;;;;;5001624;28;20201;-79
2023/04/03 03:01:43;;;;;;;0.50;0.40;;;0.60;99.90;;;;;;5001454;28;20231;-79
2023/04/03 03:04:10;;;;;;;0.50;0.40;;;0.60;99.90;;;;;;5000635;28;20201;-79
2023/04/03 03:06:37;;;;;;;0.50;0.45;;;0.60;99.90;;;;;;5000937;28;20207;-79
2023/04/03 03:09:05;;;;;;;0.50;0.40;;;0.70;99.90;;;;;;5001651;28;20197;-79
2023/04/03 03:11:32;;;;;;;0.50;0.40;;;0.70;99.90;;;;;;5001858;28;20236;-79
2023/04/03 03:13:59;;;;;;;0.50;0.43;;;0.70;99.90;;;;;;5000756;28;20208;-79
2023/04/03 03:16:27;;;;;;;0.50;0.40;;;0.70;99.90;;;;;;5001549;28;20197;-79
2023/04/03 03:18:54;;;;;;;0.50;0.40;;;0.60;99.90;;;;;;5001015;28;20204;-79
2023/04/03 03:21:20;;;;;;;0.50;0.47;;;0.60;99.90;;;;;;5000924;28;20226;-78
2023/04/03 03:23:47;;;;;;;0.50;0.40;;;0.60;99.90;;;;;;5000940;28;20208;-79
2023/04/03 03:26:14;;;;;;;0.50;0.50;;;0.60;99.90;;;;;;5000482;28;20197;-79
2023/04/03 03:28:41;;;;;;;0.60;0.40;;;0.60;99.90;;;;;;5001388;28;20211;-78
2023/04/03 03:31:09;;;;;;;0.50;0.40;;;0.60;99.90;;;;;;5000418;28;20223;-79
2023/04/03 03:33:38;;;;;;;0.50;0.40;;;0.60;99.90;;;;;;5000629;28;20255;-79
2023/04/03 03:36:05;;;;;;;0.50;0.47;;;0.60;99.90;;;;;;5000853;28;20211;-79
2023/04/03 03:38:32;;;;;;;0.50;0.40;;;0.60;99.90;;;;;;5001184;28;20224;-79
2023/04/03 03:40:58;;;;;;;0.50;0.40;;;0.70;99.90;;;;;;4999755;28;20217;-79
2023/04/03 03:43:25;;;;;;;0.50;0.40;;;0.60;99.90;;;;;;5000478;28;20199;-79
2023/04/03 03:45:53;;;;;;;0.50;0.40;;;0.60;99.90;;;;;;5000226;28;20584;-76
2023/04/03 03:48:20;;;;;;;0.60;0.60;;;0.60;99.90;;;;;;5000340;28;20197;-79
2023/04/03 03:50:49;;;;;;;0.50;0.50;;;0.60;99.90;;;;;;5000662;28;20216;-79
2023/04/03 03:53:15;;;;;;;0.70;0.70;;;0.60;99.90;;;;;;5000486;28;20268;-79
2023/04/03 03:55:43;;;;;;;0.50;0.40;;;0.60;99.90;;;;;;5000144;28;20207;-79
2023/04/03 03:58:10;;;;;;;0.50;0.40;;;0.50;99.90;;;;;;5000627;28;20224;-79
2023/04/03 04:00:37;;;;;;;0.50;0.50;;;0.50;99.90;;;;;;5000024;28;20662;-79
2023/04/03 04:03:04;;;;;;;0.50;0.40;;;0.50;99.90;;;;;;4998691;28;20201;-79
2023/04/03 04:05:31;;;;;;;0.50;0.40;;;0.50;99.90;;;;;;4998844;28;20196;-79
2023/04/03 04:07:59;;;;;;;0.50;0.40;;;0.50;99.90;;;;;;4999058;28;20211;-78
2023/04/03 04:10:26;;;;;;;0.60;0.60;;;0.60;99.90;;;;;;4999797;28;20567;-77
2023/04/03 04:12:53;;;;;;;0.50;0.40;;;0.60;99.90;;;;;;4998847;28;20197;-78
2023/04/03 04:15:21;;;;;;;0.50;0.50;;;0.60;99.90;;;;;;4996978;28;20686;-79
2023/04/03 04:17:48;;;;;;;0.50;0.43;;;0.60;99.90;;;;;;4997133;28;20315;-77
2023/04/03 04:20:15;;;;;;;0.50;0.40;;;0.60;99.90;;;;;;4996629;28;20205;-79
2023/04/03 04:22:41;;;;;;;0.50;0.50;;;0.60;99.90;;;;;;4997112;28;20221;-79
2023/04/03 04:25:10;;;;;;;0.68;0.68;;;0.60;99.90;;;;;;4996826;28;20244;-80
2023/04/03 04:27:37;;;;;;;0.50;0.40;;;0.60;99.90;;;;;;4996713;28;20571;-78
2023/04/03 04:30:06;;;;;;;4.32;2.88;;;0.60;99.90;;;;;;4995611;28;20208;-79
2023/04/03 04:32:32;;;;;;;0.50;0.40;;;0.50;99.90;;;;;;4995812;28;20407;-79
2023/04/03 04:34:59;;;;;;;0.50;0.40;;;0.50;99.90;;;;;;4995495;28;20201;-79
2023/04/03 04:37:26;;;;;;;0.95;0.75;;;0.50;99.90;;;;;;4996587;28;20200;-78
2023/04/03 04:39:53;;;;;;;0.50;0.40;;;0.50;99.90;;;;;;4996257;28;20199;-79
2023/04/03 04:42:21;;;;;;;0.50;0.40;;;0.40;99.90;;;;;;4995524;28;20227;-79
2023/04/03 04:44:47;;;;;;;0.50;0.50;;;0.30;99.90;;;;;;4996410;28;20208;-79
2023/04/03 04:47:14;;;;;;;0.50;0.40;;;0.20;99.90;;;;;;4995819;28;20287;-79
2023/04/03 04:49:41;;;;;;;0.50;0.40;;;0.10;99.90;;;;;;4996049;28;20203;-79
2023/04/03 04:52:08;;;;;;;0.50;0.40;;;0.10;99.90;;;;;;4996004;28;20216;-78
2023/04/03 04:54:35;;;;;;;0.50;0.40;;;0.10;99.90;;;;;;4995292;28;20201;-79
2023/04/03 04:57:01;;;;;;;0.50;0.40;;;0.10;99.90;;;;;;4995409;28;20203;-79
2023/04/03 04:59:30;;;;;;;0.50;0.50;;;0.10;99.90;;;;;;4996242;28;20227;-78
2023/04/03 05:01:56;;;;;;;0.50;0.40;;;0.10;99.90;;;;;;4995642;28;20315;-79
2023/04/03 05:04:23;;;;;;;0.50;0.40;;;0.00;99.90;;;;;;4986781;28;20196;-77
2023/04/03 05:06:50;;;;;;;0.50;0.40;;;0.00;99.90;;;;;;4994742;28;20668;-79
2023/04/03 05:09:17;;;;;;;0.50;0.50;;;0.00;99.90;;;;;;4993877;28;20212;-79
2023/04/03 05:11:44;;;;;;;0.50;0.40;;;0.00;99.90;;;;;;4994845;28;20217;-79
2023/04/03 05:14:10;;;;;;;0.50;0.40;;;0.00;99.90;;;;;;4993984;28;20208;-79
2023/04/03 05:16:38;;;;;;;0.50;0.40;;;0.00;99.90;;;;;;4994058;28;20215;-79
2023/04/03 05:19:05;;;;;;;0.50;0.40;;;0.00;99.90;;;;;;4994106;28;20200;-79
2023/04/03 05:21:32;;;;;;;0.50;0.43;;;0.10;99.90;;;;;;4994328;28;20263;-79
2023/04/03 05:24:02;;;;;;;0.50;0.40;;;0.00;99.90;;;;;;4994224;28;20604;-78
2023/04/03 05:26:29;;;;;;;0.50;0.50;;;0.00;99.90;;;;;;4994766;28;20694;-80
2023/04/03 05:28:56;;;;;;;0.50;0.40;;;0.10;99.90;;;;;;4994555;28;20201;-80
2023/04/03 05:31:23;;;;;;;0.50;0.50;;;0.20;99.90;;;;;;4990194;28;20255;-79
2023/04/03 05:33:52;;;;;;;0.50;0.50;;;0.20;99.90;;;;;;4993557;28;20200;-80
2023/04/03 05:36:19;;;;;;;0.50;0.40;;;0.30;99.90;;;;;;4992248;28;20205;-80
2023/04/03 05:38:46;;;;;;;0.70;0.50;;;0.30;99.90;;;;;;4994835;28;20660;-79
2023/04/03 05:41:13;;;;;;;0.50;0.40;;;0.40;99.90;;;;;;4996415;28;20227;-79
2023/04/03 05:43:39;;;;;;;0.50;0.50;;;0.50;99.90;;;;;;4999857;28;20200;-81
2023/04/03 05:46:11;;;;;;;0.50;0.40;;;0.50;99.90;;;;;;4998699;28;20260;-80
2023/04/03 05:48:38;;;;;;;0.50;0.40;;;0.60;99.90;;;;;;4999944;28;20200;-79
2023/04/03 05:51:07;;;;;;;0.50;0.47;;;0.70;99.90;;;;;;4999250;28;20223;-81
2023/04/03 05:53:36;;;;;;;2.78;1.25;;;0.80;99.90;;;;;;5000824;28;20691;-79
2023/04/03 05:56:03;;;;;;;1.70;1.25;;;0.90;99.90;;;;;;4999869;28;20204;-80
2023/04/03 05:58:30;;;;;;;0.50;0.45;;;1.00;99.90;;;;;;4999799;28;20216;-79
2023/04/03 06:00:57;;;;;;;1.52;1.42;;;1.20;99.90;;;;;;4999046;28;20595;-79
2023/04/03 06:03:24;;;;;;;0.73;0.68;;;1.70;99.90;;;;;;4997394;28;20568;-79
2023/04/03 06:05:51;;;;;;;0.50;0.40;;;2.40;99.90;;;;;;4997215;28;20583;-78
2023/04/03 06:08:19;;;;;;;0.50;0.40;;;3.00;99.90;;;;;;4997717;28;20203;-80
2023/04/03 06:10:46;;;;;;;4.10;1.77;;;3.60;99.90;;;;;;4996756;28;20695;-79
2023/04/03 06:13:13;;;;;;;0.50;0.40;;;4.40;99.90;;;;;;4997369;28;20201;-79
2023/04/03 06:15:41;;;;;;;0.50;0.40;;;5.30;99.90;;;;;;4997169;28;20660;-78
2023/04/03 06:18:08;;;;;;;0.50;0.40;;;6.40;99.90;;;;;;4997771;28;20240;-80
2023/04/03 06:20:35;;;;;;;1.58;1.13;;;7.80;99.90;;;;;;4997109;28;20225;-80
2023/04/03 06:23:02;;;;;;;10.90;1.60;;;8.90;99.90;;;;;;4997383;28;20255;-78
2023/04/03 06:25:31;;;;;;;0.50;0.45;;;9.80;99.90;;;;;;4997541;28;20744;-80
2023/04/03 06:27:58;;;;;;;0.50;0.40;;;10.50;99.90;;;;;;4997633;28;20205;-79
2023/04/03 06:30:25;;;;;;;0.50;0.40;;;11.60;97.70;;;;;;4997151;28;20731;-80
2023/04/03 06:32:52;;;;;;;0.50;0.40;;;11.80;92.10;;;;;;4997484;28;20224;-80
2023/04/03 06:35:19;;;;;;;0.60;0.60;;;12.10;88.90;;;;;;4997476;28;20518;-79
2023/04/03 06:37:46;;;;;;;0.60;0.60;;;12.60;85.80;;;;;;4999099;28;20935;-80
2023/04/03 06:40:18;;;;;;;0.50;0.40;;;12.70;83.40;;;;;;4997907;28;20502;-79
2023/04/03 06:42:47;;;;;;;0.50;0.40;;;13.30;81.90;;;;;;4998028;28;20971;-80
2023/04/03 06:45:13;;;;;;;1.63;1.53;;;13.20;77.30;;;;;;4997193;28;20450;-79
2023/04/03 06:47:40;;;;;;;0.50;0.40;;;13.30;78.30;;;;;;4997410;28;20450;-79
2023/04/03 06:50:08;;;;;;;0.50;0.40;;;13.60;75.30;;;;;;4997802;28;20458;-79
2023/04/03 06:52:35;;;;;;;0.70;0.70;;;14.10;73.70;;;;;;4993327;28;20484;-80
2023/04/03 06:55:02;;;;;;;0.50;0.40;;;14.70;72.10;;;;;;4997566;28;20534;-80
2023/04/03 06:57:29;;;;;;;0.50;0.40;;;14.90;69.30;;;;;;4997561;28;20452;-80
2023/04/03 06:59:57;;;;;;;0.50;0.40;;;15.40;71.60;;;;;;4997587;28;20483;-82
2023/04/03 07:02:24;;;;;;;0.50;0.30;;;15.80;67.90;;;;;;4997375;28;20488;-81
2023/04/03 07:04:51;;;;;;;0.60;0.50;;;16.40;65.90;;;;;;4997869;28;20444;-81
2023/04/03 07:07:18;;;;;;;0.50;0.30;;;17.00;65.20;;;;;;4999062;28;20448;-81
2023/04/03 07:09:46;;;;;;;0.50;0.40;;;17.60;64.20;;;;;;4998694;28;20939;-81
2023/04/03 07:12:13;;;;;;;1.03;1.03;;;18.20;61.30;;;;;;4999127;28;20463;-81
2023/04/03 07:14:41;;;;;;;0.60;0.40;;;18.80;59.00;;;;;;4998141;28;20439;-81
2023/04/03 07:17:09;;;;;;;0.50;0.40;;;17.80;56.50;;;;;;4998757;28;20477;-81
2023/04/03 07:19:36;;;;;;;0.60;0.40;;;17.20;57.40;;;;;;4998772;28;20444;-81
2023/04/03 07:22:03;;;;;;;0.50;0.30;;;17.40;57.20;;;;;;4998816;28;20479;-81
2023/04/03 07:24:29;;;;;;;0.67;0.67;;;17.20;56.80;;;;;;4998481;28;20512;-81
2023/04/03 07:26:57;;;;;;;0.50;0.40;;;16.90;56.60;;;;;;4998770;28;20440;-80
2023/04/03 07:29:23;;;;;;;0.50;0.50;;;17.40;58.00;;;;;;4998650;28;20440;-80
2023/04/03 07:31:50;;;;;;;0.50;0.40;;;17.80;56.10;;;;;;4998023;28;20482;-81
2023/04/03 07:34:18;;;;;;;0.60;0.50;;;17.20;55.90;;;;;;4997725;28;20458;-82
2023/04/03 07:36:45;;;;;;;1.77;0.90;;;17.00;55.80;;;;;;4998144;28;20446;-80
2023/04/03 07:39:12;;;;;;;0.50;0.30;;;16.90;55.80;;;;;;4998268;28;20447;-80
2023/04/03 07:41:39;;;;;;;1.80;1.80;;;16.70;56.50;;;;;;4997238;28;20892;-80
2023/04/03 07:44:09;;;;;;;1.70;1.60;;;17.20;55.60;;;;;;4997925;28;20448;-80
2023/04/03 07:46:36;;;;;;;1.07;1.07;;;17.50;56.00;;;;;;4990332;28;20474;-78
2023/04/03 07:49:03;;;;;;;0.50;0.40;;;17.20;55.20;;;;;;4997728;28;20953;-81
2023/04/03 07:51:31;;;;;;;0.60;0.50;;;16.80;55.00;;;;;;4997323;28;20456;-79
2023/04/03 07:53:58;;;;;;;0.50;0.40;;;17.00;55.10;;;;;;4998524;28;20446;-81
2023/04/03 07:56:26;;;;;;;2.63;0.70;;;16.90;54.30;;;;;;4997426;28;20479;-81
2023/04/03 07:58:53;;;;;;;0.50;0.40;;;17.20;54.60;;;;;;4997493;28;20510;-81
2023/04/03 08:01:20;;;;;;;0.50;0.40;;;16.60;54.10;;;;;;4997448;28;20463;-81
2023/04/03 08:03:47;;;;;;;0.50;0.30;;;16.70;54.70;;;;;;4996952;28;20448;-81
2023/04/03 08:06:14;;;;;;;1.13;0.60;;;17.30;54.50;;;;;;4996339;28;20444;-80
2023/04/03 08:08:43;;;;;;;0.80;0.80;;;17.90;54.10;;;;;;4997261;28;20448;-81
2023/04/03 08:11:11;;;;;;;0.73;0.70;;;18.00;53.20;;;;;;4996755;28;21152;-80
2023/04/03 08:13:38;;;;;;;0.50;0.40;;;17.20;52.30;;;;;;4996614;28;20476;-80
2023/04/03 08:16:10;;;;;;;1.10;0.70;;;17.60;53.20;;;;;;4995745;28;20520;-80
2023/04/03 08:18:38;;;;;;;0.90;0.50;;;17.00;54.00;;;;;;4995841;28;20447;-80
2023/04/03 08:21:07;;;;;;;0.50;0.30;;;17.70;55.40;;;;;;4994329;28;20832;-80
2023/04/03 08:23:34;;;;;;;0.50;0.30;;;18.60;53.50;;;;;;4990916;28;20486;-80
2023/04/03 08:26:08;;;;;;;0.70;0.70;;;19.20;54.50;;;;;;4995597;28;20458;-80
2023/04/03 08:28:35;;;;;;;0.50;0.30;;;19.80;52.60;;;;;;4995631;28;20436;-80
2023/04/03 08:31:06;;;;;;;0.50;0.30;;;20.20;51.40;;;;;;4995481;28;20456;-81
2023/04/03 08:33:34;;;;;;;0.50;0.40;;;20.60;52.60;;;;;;4995930;28;20455;-79
2023/04/03 08:36:01;;;;;;;0.60;0.60;;;20.40;49.50;;;;;;4995811;28;20543;-80
2023/04/03 08:38:27;;;;;;;2.50;0.40;;;20.50;49.80;;;;;;4996077;28;20811;-81
2023/04/03 08:41:03;;;;;;;0.50;0.30;;;20.80;50.90;;;;;;4995963;28;20464;-81
2023/04/03 08:43:41;;;;;;;0.50;0.40;;;21.20;50.00;;;;;;4996154;28;20494;-81
2023/04/03 08:46:14;;;;;;;0.50;0.30;;;20.90;49.00;;;;;;4996462;28;20807;-81
2023/04/03 08:48:43;;;;;;;0.50;0.40;;;21.50;50.40;;;;;;4996120;28;20432;-80
2023/04/03 08:51:15;;;;;;;0.50;0.40;;;21.50;47.40;;;;;;4996114;28;21086;-81
2023/04/03 08:53:45;;;;;;;0.50;0.40;;;21.80;46.60;;;;;;4996435;28;20436;-82
2023/04/03 08:56:17;;;;;;;0.50;0.40;;;21.50;47.30;;;;;;4996903;28;20459;-82
2023/04/03 08:58:52;;;;;;;0.50;0.40;;;21.30;48.00;;;;;;4997066;28;20452;-81
2023/04/03 09:01:24;;;;;;;0.50;0.40;;;20.80;47.90;;;;;;4996627;28;20470;-82
2023/04/03 09:03:50;;;;;;;0.50;0.30;;;20.40;47.50;;;;;;4997204;28;20475;-81
2023/04/03 09:06:22;;;;;;;0.60;0.60;;;20.70;46.40;;;;;;4995523;28;20444;-82
2023/04/03 09:09:06;;;;;;;0.50;0.40;;;21.20;46.80;;;;;;4996460;28;20454;-82
2023/04/03 09:11:44;;;;;;;0.50;0.50;;;21.30;45.80;;;;;;4995407;28;20822;-81
2023/04/03 09:14:20;;;;;;;0.50;0.30;;;20.50;47.00;;;;;;4995208;28;20507;-82
2023/04/03 09:16:54;;;;;;;0.50;0.40;;;19.80;43.90;;;;;;4995120;28;20507;-82
2023/04/03 09:19:37;;;;;;;0.50;0.40;;;19.30;42.70;;;;;;4995144;28;20815;-81
2023/04/03 09:22:14;;;;;;;0.50;0.30;;;18.40;42.80;;;;;;4995143;28;20460;-81
2023/04/03 09:24:43;;;;;;;0.50;0.30;;;17.80;44.00;;;;;;4994660;28;20440;-81
2023/04/03 09:27:11;;;;;;;0.50;0.40;;;18.30;45.10;;;;;;4994766;28;20444;-82
2023/04/03 09:29:44;;;;;;;0.50;0.37;;;18.90;43.70;;;;;;4995624;28;20440;-82
2023/04/03 09:32:22;;;;;;;1.17;0.43;;;18.60;43.10;;;;;;4994790;28;20804;-81
2023/04/03 09:34:50;;;;;;;0.60;0.50;;;18.20;43.90;;;;;;4994589;28;20506;-81
2023/04/03 09:37:41;;;;;;;0.50;0.30;;;17.90;45.80;;;;;;4994645;28;20494;-81
2023/04/03 09:40:30;;;;;;;0.50;0.40;;;18.60;45.30;;;;;;4995158;28;20472;-82
2023/04/03 09:42:59;;;;;;;0.60;0.40;;;18.90;44.30;;;;;;4994995;28;20537;-81
2023/04/03 09:45:30;;;;;;;0.50;0.40;;;19.20;42.80;;;;;;4994336;28;20448;-81
2023/04/03 09:48:08;;;;;;;0.53;0.40;;;18.80;44.70;;;;;;4994999;28;20440;-81
2023/04/03 09:50:36;;;;;;;0.60;0.50;;;18.90;42.50;;;;;;4995192;28;20506;-81
2023/04/03 09:53:08;;;;;;;0.60;0.50;;;19.10;42.30;;;;;;4995149;28;20494;-81
2023/04/03 09:55:43;;;;;;;0.50;0.30;;;19.40;42.20;;;;;;4995357;28;20552;-81
2023/04/03 09:58:25;;;;;;;0.50;0.30;;;20.10;41.90;;;;;;4995251;28;20445;-82
2023/04/03 10:00:58;;;;;;;0.60;0.50;;;20.50;40.60;;;;;;4995334;28;20888;-82
2023/04/03 10:03:28;;;;;;;0.50;0.40;;;20.10;41.00;;;;;;4995429;28;20472;-81
2023/04/03 10:05:57;;;;;;;0.70;0.50;;;19.40;41.00;;;;;;4995061;28;20428;-82
2023/04/03 10:08:26;;;;;;;0.60;0.40;;;18.80;39.20;;;;;;4995641;28;20459;-81
2023/04/03 10:11:13;;;;;;;0.50;0.40;;;18.20;39.20;;;;;;4995566;28;20459;-81
2023/04/03 10:13:59;;;;;;;0.80;0.73;;;17.10;41.00;;;;;;4985663;28;20526;-81
2023/04/03 10:16:33;;;;;;;0.50;0.30;;;16.80;41.20;;;;;;4995491;28;20502;-80
2023/04/03 10:19:36;;;;;;;0.50;0.30;;;17.20;43.00;;;;;;4996566;28;20440;-81
2023/04/03 10:22:09;;;;;;;0.50;0.30;;;17.60;42.70;;;;;;4963790;28;20684;-81
2023/04/03 10:24:48;;;;;;;0.50;0.40;;;17.50;41.80;;;;;;4995015;28;20441;-80
2023/04/03 10:27:23;;;;;;;0.60;0.57;;;17.40;41.20;;;;;;4995799;28;20435;-81
2023/04/03 10:29:55;;;;;;;0.50;0.40;;;17.40;41.30;;;;;;4998926;28;20807;-82
2023/04/03 10:32:46;;;;;;;0.50;0.40;;;16.90;41.30;;;;;;4998640;28;21024;-81
2023/04/03 10:35:20;;;;;;;0.50;0.40;;;16.80;42.40;;;;;;4998715;28;20896;-81
2023/04/03 10:38:01;;;;;;;0.50;0.40;;;17.30;43.10;;;;;;4999524;28;20483;-80
2023/04/03 10:40:33;;;;;;;0.60;0.53;;;17.30;41.50;;;;;;4998730;28;20440;-81
2023/04/03 10:43:07;;;;;;;0.50;0.40;;;16.80;41.90;;;;;;4999263;28;20471;-81
2023/04/03 10:45:52;;;;;;;0.50;0.40;;;16.60;42.30;;;;;;4998444;28;20436;-81
2023/04/03 10:48:32;;;;;;;0.50;0.40;;;16.60;44.20;;;;;;4998216;28;20950;-81
2023/04/03 10:51:04;;;;;;;0.50;0.40;;;16.70;45.60;;;;;;5006199;28;20463;-80
2023/04/03 10:53:38;;;;;;;0.60;0.40;;;17.40;44.60;;;;;;5001860;28;20491;-81
2023/04/03 10:56:12;;;;;;;0.80;0.77;;;17.30;43.50;;;;;;4998794;28;20792;-79
2023/04/03 10:58:43;;;;;;;0.70;0.53;;;17.50;43.50;;;;;;4998498;28;20444;-81
2023/04/03 11:01:16;;;;;;;0.50;0.40;;;17.40;43.30;;;;;;4999227;28;20479;-79
2023/04/03 11:03:47;;;;;;;0.50;0.40;;;17.20;43.60;;;;;;4998086;28;20479;-81
2023/04/03 11:06:16;;;;;;;0.50;0.40;;;17.20;45.80;;;;;;4998377;28;20854;-79
2023/04/03 11:08:47;;;;;;;0.50;0.40;;;17.00;44.40;;;;;;4990964;28;20439;-79
2023/04/03 11:11:17;;;;;;;0.50;0.30;;;17.20;45.90;;;;;;4998256;28;20456;-82
2023/04/03 11:13:49;;;;;;;0.60;0.60;;;17.80;48.00;;;;;;4998775;28;20448;-82
2023/04/03 11:16:21;;;;;;;0.50;0.40;;;18.00;46.70;;;;;;4998711;28;20436;-82
2023/04/03 11:18:55;;;;;;;1.27;0.50;;;18.50;47.00;;;;;;4998800;28;20804;-81
2023/04/03 11:21:27;;;;;;;1.10;0.40;;;18.00;43.90;;;;;;4998897;28;20552;-81
2023/04/03 11:23:58;;;;;;;0.90;0.50;;;18.20;43.50;;;;;;4998494;28;20490;-81
2023/04/03 11:26:29;;;;;;;0.50;0.33;;;17.90;43.20;;;;;;4998125;28;20445;-81
2023/04/03 11:29:02;;;;;;;0.80;0.70;;;17.10;43.00;;;;;;4998008;28;20539;-81
2023/04/03 11:31:40;;;;;;;0.50;0.30;;;17.40;46.20;;;;;;4998203;28;20467;-81
2023/04/03 11:34:27;;;;;;;0.60;0.50;;;17.50;45.20;;;;;;4998624;28;20443;-82
2023/04/03 11:36:57;;;;;;;0.97;0.60;;;17.50;45.80;;;;;;4999115;28;20440;-81
2023/04/03 11:39:27;;;;;;;0.90;0.50;;;17.70;43.70;;;;;;4999165;28;20462;-81
2023/04/03 11:41:54;;;;;;;0.50;0.40;;;17.50;43.50;;;;;;4998868;28;20467;-82
2023/04/03 11:44:36;;;;;;;0.60;0.50;;;17.40;44.40;;;;;;4998100;28;20478;-79
2023/04/03 11:47:04;;;;;;;0.50;0.40;;;17.00;43.70;;;;;;4998524;28;20543;-81
2023/04/03 11:49:59;;;;;;;11.83;0.83;;;16.60;43.80;;;;;;4998979;28;20442;-82
2023/04/03 11:53:03;;;;;;;0.50;0.40;;;16.10;44.10;;;;;;4998618;28;20459;-83
2023/04/03 11:55:57;;;;;;;0.50;0.40;;;16.50;44.80;;;;;;4999150;28;20439;-82
2023/04/03 11:58:26;;;;;;;0.50;0.40;;;16.50;44.90;;;;;;4999060;28;20499;-82
2023/04/03 12:01:00;;;;;;;0.70;0.40;;;17.00;44.70;;;;;;4999765;28;20503;-82
2023/04/03 12:04:03;;;;;;;1.27;0.73;;;16.80;43.60;;;;;;4998909;28;20472;-82
2023/04/03 12:07:04;;;;;;;0.50;0.40;;;16.60;43.70;;;;;;4998282;28;20859;-82
2023/04/03 12:10:00;;;;;;;4.70;1.77;;;16.20;44.40;;;;;;4998660;28;20994;-80
2023/04/03 12:12:40;;;;;;;0.80;0.67;;;16.60;45.20;;;;;;4972732;28;20835;-80
2023/04/03 12:15:49;;;;;;;0.50;0.40;;;17.00;44.50;;;;;;4997294;28;20450;-81
2023/04/03 12:18:43;;;;;;;0.50;0.40;;;17.20;43.70;;;;;;4996544;28;20456;-81
2023/04/03 12:21:11;;;;;;;0.50;0.30;;;16.80;43.80;;;;;;4961628;28;20471;-81
2023/04/03 12:24:02;;;;;;;0.50;0.40;;;17.50;44.90;;;;;;4996306;28;20476;-81
2023/04/03 12:26:34;;;;;;;0.50;0.40;;;17.60;44.70;;;;;;4995342;28;20448;-82
2023/04/03 12:29:11;;;;;;;0.50;0.30;;;17.80;44.90;;;;;;4995593;28;20447;-81
2023/04/03 12:31:44;;;;;;;1.10;0.40;;;18.20;44.90;;;;;;4996437;28;20473;-82
2023/04/03 12:34:25;;;;;;;1.10;1.10;;;18.10;44.70;;;;;;4995502;28;20439;-82
2023/04/03 12:37:03;;;;;;;0.50;0.40;;;17.40;45.00;;;;;;4995879;28;20444;-82
2023/04/03 12:39:56;;;;;;;0.70;0.40;;;16.80;45.60;;;;;;4995692;28;20440;-80
2023/04/03 12:42:41;;;;;;;0.50;0.40;;;17.50;44.00;;;;;;4995379;28;20463;-81
2023/04/03 12:45:18;;;;;;;1.20;0.83;;;17.30;43.50;;;;;;4994767;28;20475;-81
2023/04/03 12:47:46;;;;;;;0.50;0.40;;;17.10;44.50;;;;;;4995361;28;20446;-81
2023/04/03 12:50:24;;;;;;;1.03;1.03;;;17.10;45.60;;;;;;4995218;28;20442;-81
2023/04/03 12:52:55;;;;;;;0.67;0.50;;;17.40;46.20;;;;;;4996268;28;20451;-80
2023/04/03 12:55:24;;;;;;;0.50;0.30;;;17.50;44.60;;;;;;5000448;28;20478;-83
2023/04/03 12:57:51;;;;;;;0.57;0.50;;;17.90;43.50;;;;;;4995121;28;20440;-81
2023/04/03 13:00:38;;;;;;;0.50;0.30;;;17.80;44.30;;;;;;4995685;28;20834;-83
2023/04/03 13:03:07;;;;;;;0.50;0.40;;;17.60;44.30;;;;;;5001160;28;20438;-82
2023/04/03 13:05:35;;;;;;;0.50;0.40;;;17.80;45.50;;;;;;4999216;28;20443;-82
2023/04/03 13:08:05;;;;;;;0.50;0.30;;;17.90;43.50;;;;;;4995858;28;20535;-81
2023/04/03 13:10:44;;;;;;;0.50;0.33;;;18.00;43.90;;;;;;4995441;28;20955;-81